sensor_id;sensor_type;location;lat;lon;timestamp;P1;durP1;ratioP1;P2;durP2;ratioP2
323;SDS011;149;51.094;17.002;2023-07-30T00:00:51;7.43;;;5.47;;
323;SDS011;149;51.094;17.002;2023-07-30T00:03:18;4.77;;;4.27;;
323;SDS011;149;51.094;17.002;2023-07-30T00:05:55;5.77;;;5.00;;
323;SDS011;149;51.094;17.002;2023-07-30T00:08:22;7.20;;;4.57;;
323;SDS011;149;51.094;17.002;2023-07-30T00:10:50;7.03;;;5.43;;
323;SDS011;149;51.094;17.002;2023-07-30T00:13:17;5.67;;;5.03;;
323;SDS011;149;51.094;17.002;2023-07-30T00:15:47;5.80;;;4.70;;
323;SDS011;149;51.094;17.002;2023-07-30T00:18:15;9.50;;;5.17;;
323;SDS011;149;51.094;17.002;2023-07-30T00:20:42;5.33;;;4.07;;
323;SDS011;149;51.094;17.002;2023-07-30T00:23:10;5.23;;;4.73;;
323;SDS011;149;51.094;17.002;2023-07-30T00:25:36;6.70;;;4.60;;
323;SDS011;149;51.094;17.002;2023-07-30T00:28:04;7.27;;;4.73;;
323;SDS011;149;51.094;17.002;2023-07-30T00:30:31;5.13;;;4.73;;
323;SDS011;149;51.094;17.002;2023-07-30T00:32:58;5.50;;;4.97;;
323;SDS011;149;51.094;17.002;2023-07-30T00:35:27;6.47;;;5.17;;
323;SDS011;149;51.094;17.002;2023-07-30T00:37:54;7.70;;;5.33;;
323;SDS011;149;51.094;17.002;2023-07-30T00:40:21;5.73;;;5.23;;
323;SDS011;149;51.094;17.002;2023-07-30T00:42:48;9.60;;;5.50;;
323;SDS011;149;51.094;17.002;2023-07-30T00:45:15;6.73;;;6.00;;
323;SDS011;149;51.094;17.002;2023-07-30T00:47:43;4.70;;;4.30;;
323;SDS011;149;51.094;17.002;2023-07-30T00:50:11;4.87;;;4.30;;
323;SDS011;149;51.094;17.002;2023-07-30T00:52:41;6.10;;;4.80;;
323;SDS011;149;51.094;17.002;2023-07-30T00:55:09;8.20;;;5.57;;
323;SDS011;149;51.094;17.002;2023-07-30T00:57:37;5.20;;;4.60;;
323;SDS011;149;51.094;17.002;2023-07-30T01:00:04;5.93;;;4.63;;
323;SDS011;149;51.094;17.002;2023-07-30T01:02:35;6.20;;;4.80;;
323;SDS011;149;51.094;17.002;2023-07-30T01:05:03;5.70;;;5.13;;
323;SDS011;149;51.094;17.002;2023-07-30T01:07:31;7.40;;;5.10;;
323;SDS011;149;51.094;17.002;2023-07-30T01:10:00;7.00;;;4.63;;
323;SDS011;149;51.094;17.002;2023-07-30T01:12:28;10.60;;;4.80;;
323;SDS011;149;51.094;17.002;2023-07-30T01:14:56;5.13;;;4.73;;
323;SDS011;149;51.094;17.002;2023-07-30T01:17:25;8.80;;;5.60;;
323;SDS011;149;51.094;17.002;2023-07-30T01:19:52;6.33;;;5.50;;
323;SDS011;149;51.094;17.002;2023-07-30T01:22:22;6.37;;;5.60;;
323;SDS011;149;51.094;17.002;2023-07-30T01:24:50;5.17;;;4.67;;
323;SDS011;149;51.094;17.002;2023-07-30T01:27:25;6.43;;;4.87;;
323;SDS011;149;51.094;17.002;2023-07-30T01:29:56;10.17;;;5.53;;
323;SDS011;149;51.094;17.002;2023-07-30T01:32:40;7.50;;;5.27;;
323;SDS011;149;51.094;17.002;2023-07-30T01:35:08;6.60;;;5.60;;
323;SDS011;149;51.094;17.002;2023-07-30T01:37:35;8.67;;;5.43;;
323;SDS011;149;51.094;17.002;2023-07-30T01:40:05;7.40;;;6.60;;
323;SDS011;149;51.094;17.002;2023-07-30T01:42:33;6.10;;;4.90;;
323;SDS011;149;51.094;17.002;2023-07-30T01:45:00;7.10;;;5.40;;
323;SDS011;149;51.094;17.002;2023-07-30T01:47:27;7.87;;;5.60;;
323;SDS011;149;51.094;17.002;2023-07-30T01:49:54;9.27;;;5.60;;
323;SDS011;149;51.094;17.002;2023-07-30T01:52:21;11.30;;;6.03;;
323;SDS011;149;51.094;17.002;2023-07-30T01:54:48;7.23;;;6.50;;
323;SDS011;149;51.094;17.002;2023-07-30T01:57:14;8.33;;;5.70;;
323;SDS011;149;51.094;17.002;2023-07-30T01:59:43;8.93;;;5.87;;
323;SDS011;149;51.094;17.002;2023-07-30T02:02:09;13.20;;;5.13;;
323;SDS011;149;51.094;17.002;2023-07-30T02:04:36;8.40;;;5.97;;
323;SDS011;149;51.094;17.002;2023-07-30T02:07:03;9.40;;;6.40;;
323;SDS011;149;51.094;17.002;2023-07-30T02:09:31;12.23;;;6.20;;
323;SDS011;149;51.094;17.002;2023-07-30T02:11:57;12.60;;;5.70;;
323;SDS011;149;51.094;17.002;2023-07-30T02:14:25;9.67;;;6.20;;
323;SDS011;149;51.094;17.002;2023-07-30T02:16:51;10.03;;;7.60;;
323;SDS011;149;51.094;17.002;2023-07-30T02:19:19;7.23;;;6.10;;
323;SDS011;149;51.094;17.002;2023-07-30T02:21:46;8.27;;;4.97;;
323;SDS011;149;51.094;17.002;2023-07-30T02:24:13;7.73;;;6.07;;
323;SDS011;149;51.094;17.002;2023-07-30T02:26:40;7.83;;;5.63;;
323;SDS011;149;51.094;17.002;2023-07-30T02:29:07;6.03;;;5.07;;
323;SDS011;149;51.094;17.002;2023-07-30T02:31:34;11.93;;;5.90;;
323;SDS011;149;51.094;17.002;2023-07-30T02:34:02;8.03;;;6.20;;
323;SDS011;149;51.094;17.002;2023-07-30T02:36:29;10.93;;;6.07;;
323;SDS011;149;51.094;17.002;2023-07-30T02:38:56;6.30;;;5.70;;
323;SDS011;149;51.094;17.002;2023-07-30T02:41:22;11.93;;;5.90;;
323;SDS011;149;51.094;17.002;2023-07-30T02:43:50;12.80;;;7.30;;
323;SDS011;149;51.094;17.002;2023-07-30T02:46:17;7.80;;;5.30;;
323;SDS011;149;51.094;17.002;2023-07-30T02:48:46;10.83;;;6.63;;
323;SDS011;149;51.094;17.002;2023-07-30T02:51:13;6.80;;;6.00;;
323;SDS011;149;51.094;17.002;2023-07-30T02:53:42;13.77;;;6.43;;
323;SDS011;149;51.094;17.002;2023-07-30T02:56:10;7.80;;;6.00;;
323;SDS011;149;51.094;17.002;2023-07-30T02:58:37;6.30;;;5.27;;
323;SDS011;149;51.094;17.002;2023-07-30T03:01:07;8.57;;;6.40;;
323;SDS011;149;51.094;17.002;2023-07-30T03:03:35;7.60;;;6.30;;
323;SDS011;149;51.094;17.002;2023-07-30T03:06:02;9.00;;;6.33;;
323;SDS011;149;51.094;17.002;2023-07-30T03:08:29;6.63;;;5.80;;
323;SDS011;149;51.094;17.002;2023-07-30T03:10:58;10.47;;;6.13;;
323;SDS011;149;51.094;17.002;2023-07-30T03:13:25;12.60;;;7.20;;
323;SDS011;149;51.094;17.002;2023-07-30T03:15:52;7.60;;;6.07;;
323;SDS011;149;51.094;17.002;2023-07-30T03:18:20;8.70;;;6.43;;
323;SDS011;149;51.094;17.002;2023-07-30T03:20:46;16.83;;;5.57;;
323;SDS011;149;51.094;17.002;2023-07-30T03:23:14;9.77;;;6.50;;
323;SDS011;149;51.094;17.002;2023-07-30T03:25:41;5.90;;;4.93;;
323;SDS011;149;51.094;17.002;2023-07-30T03:28:07;19.43;;;6.73;;
323;SDS011;149;51.094;17.002;2023-07-30T03:30:35;6.30;;;5.70;;
323;SDS011;149;51.094;17.002;2023-07-30T03:33:01;12.93;;;6.37;;
323;SDS011;149;51.094;17.002;2023-07-30T03:35:30;13.03;;;6.70;;
323;SDS011;149;51.094;17.002;2023-07-30T03:37:57;12.30;;;6.43;;
323;SDS011;149;51.094;17.002;2023-07-30T03:40:24;12.63;;;6.70;;
323;SDS011;149;51.094;17.002;2023-07-30T03:42:51;10.27;;;6.07;;
323;SDS011;149;51.094;17.002;2023-07-30T03:45:19;14.80;;;5.90;;
323;SDS011;149;51.094;17.002;2023-07-30T03:47:45;10.27;;;6.17;;
323;SDS011;149;51.094;17.002;2023-07-30T03:50:13;17.77;;;5.80;;
323;SDS011;149;51.094;17.002;2023-07-30T03:52:40;12.03;;;6.33;;
323;SDS011;149;51.094;17.002;2023-07-30T03:55:07;5.50;;;5.00;;
323;SDS011;149;51.094;17.002;2023-07-30T03:57:34;7.23;;;5.93;;
323;SDS011;149;51.094;17.002;2023-07-30T04:00:02;10.53;;;5.60;;
323;SDS011;149;51.094;17.002;2023-07-30T04:02:29;9.07;;;5.70;;
323;SDS011;149;51.094;17.002;2023-07-30T04:04:56;7.40;;;5.30;;
323;SDS011;149;51.094;17.002;2023-07-30T04:07:24;6.57;;;5.10;;
323;SDS011;149;51.094;17.002;2023-07-30T04:09:50;9.80;;;5.17;;
323;SDS011;149;51.094;17.002;2023-07-30T04:12:18;9.87;;;4.80;;
323;SDS011;149;51.094;17.002;2023-07-30T04:14:46;6.73;;;4.43;;
323;SDS011;149;51.094;17.002;2023-07-30T04:17:13;7.10;;;4.07;;
323;SDS011;149;51.094;17.002;2023-07-30T04:19:40;8.73;;;4.60;;
323;SDS011;149;51.094;17.002;2023-07-30T04:22:07;17.20;;;6.40;;
323;SDS011;149;51.094;17.002;2023-07-30T04:24:35;6.50;;;5.20;;
323;SDS011;149;51.094;17.002;2023-07-30T04:27:02;9.07;;;4.43;;
323;SDS011;149;51.094;17.002;2023-07-30T04:29:29;10.20;;;4.33;;
323;SDS011;149;51.094;17.002;2023-07-30T04:31:56;10.23;;;4.70;;
323;SDS011;149;51.094;17.002;2023-07-30T04:34:24;13.93;;;4.57;;
323;SDS011;149;51.094;17.002;2023-07-30T04:36:50;7.50;;;4.70;;
323;SDS011;149;51.094;17.002;2023-07-30T04:39:17;9.37;;;4.70;;
323;SDS011;149;51.094;17.002;2023-07-30T04:41:44;8.43;;;4.83;;
323;SDS011;149;51.094;17.002;2023-07-30T04:44:11;8.43;;;4.20;;
323;SDS011;149;51.094;17.002;2023-07-30T04:46:38;9.07;;;5.47;;
323;SDS011;149;51.094;17.002;2023-07-30T04:49:05;12.47;;;5.67;;
323;SDS011;149;51.094;17.002;2023-07-30T04:51:32;7.07;;;4.43;;
323;SDS011;149;51.094;17.002;2023-07-30T04:53:59;7.33;;;4.00;;
323;SDS011;149;51.094;17.002;2023-07-30T04:56:26;7.80;;;4.70;;
323;SDS011;149;51.094;17.002;2023-07-30T04:58:53;10.50;;;3.93;;
323;SDS011;149;51.094;17.002;2023-07-30T05:01:23;6.00;;;4.27;;
323;SDS011;149;51.094;17.002;2023-07-30T05:03:51;8.53;;;3.97;;
323;SDS011;149;51.094;17.002;2023-07-30T05:06:18;5.27;;;3.60;;
323;SDS011;149;51.094;17.002;2023-07-30T05:08:45;8.40;;;4.97;;
323;SDS011;149;51.094;17.002;2023-07-30T05:11:12;7.70;;;3.73;;
323;SDS011;149;51.094;17.002;2023-07-30T05:13:39;6.40;;;3.63;;
323;SDS011;149;51.094;17.002;2023-07-30T05:16:06;8.80;;;4.43;;
323;SDS011;149;51.094;17.002;2023-07-30T05:18:33;6.57;;;3.63;;
323;SDS011;149;51.094;17.002;2023-07-30T05:21:00;6.00;;;3.70;;
323;SDS011;149;51.094;17.002;2023-07-30T05:23:27;7.30;;;3.17;;
323;SDS011;149;51.094;17.002;2023-07-30T05:25:55;13.73;;;3.63;;
323;SDS011;149;51.094;17.002;2023-07-30T05:28:22;5.20;;;3.57;;
323;SDS011;149;51.094;17.002;2023-07-30T05:30:49;5.70;;;3.33;;
323;SDS011;149;51.094;17.002;2023-07-30T05:33:16;7.47;;;3.63;;
323;SDS011;149;51.094;17.002;2023-07-30T05:35:43;9.47;;;4.00;;
323;SDS011;149;51.094;17.002;2023-07-30T05:38:12;8.27;;;3.20;;
323;SDS011;149;51.094;17.002;2023-07-30T05:40:39;5.87;;;3.50;;
323;SDS011;149;51.094;17.002;2023-07-30T05:43:07;8.47;;;3.87;;
323;SDS011;149;51.094;17.002;2023-07-30T05:45:34;6.57;;;3.20;;
323;SDS011;149;51.094;17.002;2023-07-30T05:48:01;9.20;;;3.80;;
323;SDS011;149;51.094;17.002;2023-07-30T05:50:29;5.63;;;3.13;;
323;SDS011;149;51.094;17.002;2023-07-30T05:52:56;7.10;;;3.57;;
323;SDS011;149;51.094;17.002;2023-07-30T05:55:23;5.97;;;3.07;;
323;SDS011;149;51.094;17.002;2023-07-30T05:57:49;6.33;;;3.10;;
323;SDS011;149;51.094;17.002;2023-07-30T06:00:17;7.60;;;3.50;;
323;SDS011;149;51.094;17.002;2023-07-30T06:02:44;7.70;;;3.10;;
323;SDS011;149;51.094;17.002;2023-07-30T06:05:11;4.20;;;3.13;;
323;SDS011;149;51.094;17.002;2023-07-30T06:07:38;6.70;;;4.30;;
323;SDS011;149;51.094;17.002;2023-07-30T06:10:05;7.57;;;4.67;;
323;SDS011;149;51.094;17.002;2023-07-30T06:12:33;4.40;;;3.60;;
323;SDS011;149;51.094;17.002;2023-07-30T06:14:59;4.23;;;3.43;;
323;SDS011;149;51.094;17.002;2023-07-30T06:17:27;3.70;;;2.77;;
323;SDS011;149;51.094;17.002;2023-07-30T06:19:55;7.00;;;3.30;;
323;SDS011;149;51.094;17.002;2023-07-30T06:22:22;8.43;;;3.50;;
323;SDS011;149;51.094;17.002;2023-07-30T06:24:49;6.43;;;3.20;;
323;SDS011;149;51.094;17.002;2023-07-30T06:27:15;4.50;;;3.30;;
323;SDS011;149;51.094;17.002;2023-07-30T06:29:43;4.43;;;2.90;;
323;SDS011;149;51.094;17.002;2023-07-30T06:32:09;6.80;;;3.73;;
323;SDS011;149;51.094;17.002;2023-07-30T06:34:37;6.47;;;3.40;;
323;SDS011;149;51.094;17.002;2023-07-30T06:37:04;4.30;;;3.10;;
323;SDS011;149;51.094;17.002;2023-07-30T06:39:30;4.50;;;3.37;;
323;SDS011;149;51.094;17.002;2023-07-30T06:41:58;4.90;;;2.90;;
323;SDS011;149;51.094;17.002;2023-07-30T06:44:25;3.90;;;3.07;;
323;SDS011;149;51.094;17.002;2023-07-30T06:46:52;5.80;;;3.13;;
323;SDS011;149;51.094;17.002;2023-07-30T06:49:19;4.53;;;3.27;;
323;SDS011;149;51.094;17.002;2023-07-30T06:51:46;3.73;;;2.80;;
323;SDS011;149;51.094;17.002;2023-07-30T06:54:13;6.50;;;3.13;;
323;SDS011;149;51.094;17.002;2023-07-30T06:56:40;4.13;;;3.10;;
323;SDS011;149;51.094;17.002;2023-07-30T06:59:07;6.23;;;3.23;;
323;SDS011;149;51.094;17.002;2023-07-30T07:01:34;4.33;;;3.90;;
323;SDS011;149;51.094;17.002;2023-07-30T07:04:02;6.77;;;3.40;;
323;SDS011;149;51.094;17.002;2023-07-30T07:06:29;6.07;;;3.47;;
323;SDS011;149;51.094;17.002;2023-07-30T07:08:56;5.27;;;2.80;;
323;SDS011;149;51.094;17.002;2023-07-30T07:11:23;4.63;;;3.60;;
323;SDS011;149;51.094;17.002;2023-07-30T07:13:50;7.90;;;4.00;;
323;SDS011;149;51.094;17.002;2023-07-30T07:16:17;5.27;;;4.27;;
323;SDS011;149;51.094;17.002;2023-07-30T07:18:44;4.73;;;3.20;;
323;SDS011;149;51.094;17.002;2023-07-30T07:21:11;4.40;;;3.20;;
323;SDS011;149;51.094;17.002;2023-07-30T07:23:38;5.20;;;4.03;;
323;SDS011;149;51.094;17.002;2023-07-30T07:26:05;3.43;;;2.90;;
323;SDS011;149;51.094;17.002;2023-07-30T07:28:32;4.90;;;3.00;;
323;SDS011;149;51.094;17.002;2023-07-30T07:30:59;6.13;;;3.83;;
323;SDS011;149;51.094;17.002;2023-07-30T07:33:26;6.20;;;3.27;;
323;SDS011;149;51.094;17.002;2023-07-30T07:36:06;6.13;;;3.67;;
323;SDS011;149;51.094;17.002;2023-07-30T07:38:33;3.53;;;3.33;;
323;SDS011;149;51.094;17.002;2023-07-30T07:41:01;6.27;;;3.90;;
323;SDS011;149;51.094;17.002;2023-07-30T07:43:28;3.93;;;3.50;;
323;SDS011;149;51.094;17.002;2023-07-30T07:45:55;4.00;;;3.47;;
323;SDS011;149;51.094;17.002;2023-07-30T07:48:22;4.77;;;3.30;;
323;SDS011;149;51.094;17.002;2023-07-30T07:50:49;3.93;;;3.57;;
323;SDS011;149;51.094;17.002;2023-07-30T07:53:16;7.70;;;3.27;;
323;SDS011;149;51.094;17.002;2023-07-30T07:55:43;7.53;;;3.20;;
323;SDS011;149;51.094;17.002;2023-07-30T07:58:10;5.30;;;3.50;;
323;SDS011;149;51.094;17.002;2023-07-30T08:00:37;6.20;;;3.40;;
323;SDS011;149;51.094;17.002;2023-07-30T08:03:04;5.63;;;3.00;;
323;SDS011;149;51.094;17.002;2023-07-30T08:05:32;4.77;;;3.60;;
323;SDS011;149;51.094;17.002;2023-07-30T08:07:59;6.40;;;3.50;;
323;SDS011;149;51.094;17.002;2023-07-30T08:10:27;4.50;;;3.37;;
323;SDS011;149;51.094;17.002;2023-07-30T08:12:54;5.57;;;3.90;;
323;SDS011;149;51.094;17.002;2023-07-30T08:15:21;3.13;;;2.93;;
323;SDS011;149;51.094;17.002;2023-07-30T08:17:48;3.07;;;2.80;;
323;SDS011;149;51.094;17.002;2023-07-30T08:20:14;4.27;;;2.83;;
323;SDS011;149;51.094;17.002;2023-07-30T08:22:42;9.43;;;3.37;;
323;SDS011;149;51.094;17.002;2023-07-30T08:25:10;4.10;;;3.30;;
323;SDS011;149;51.094;17.002;2023-07-30T08:27:37;4.03;;;3.53;;
323;SDS011;149;51.094;17.002;2023-07-30T08:30:04;4.93;;;3.70;;
323;SDS011;149;51.094;17.002;2023-07-30T08:32:32;11.50;;;4.80;;
323;SDS011;149;51.094;17.002;2023-07-30T08:35:00;4.30;;;3.23;;
323;SDS011;149;51.094;17.002;2023-07-30T08:37:27;3.20;;;2.50;;
323;SDS011;149;51.094;17.002;2023-07-30T08:39:54;3.57;;;2.90;;
323;SDS011;149;51.094;17.002;2023-07-30T08:42:22;3.30;;;2.80;;
323;SDS011;149;51.094;17.002;2023-07-30T08:44:49;8.87;;;3.53;;
323;SDS011;149;51.094;17.002;2023-07-30T08:47:15;2.93;;;2.37;;
323;SDS011;149;51.094;17.002;2023-07-30T08:49:43;5.10;;;3.30;;
323;SDS011;149;51.094;17.002;2023-07-30T08:52:10;3.60;;;2.87;;
323;SDS011;149;51.094;17.002;2023-07-30T08:54:38;5.43;;;3.27;;
323;SDS011;149;51.094;17.002;2023-07-30T08:57:06;3.13;;;2.83;;
323;SDS011;149;51.094;17.002;2023-07-30T08:59:37;3.77;;;2.47;;
323;SDS011;149;51.094;17.002;2023-07-30T09:02:08;3.20;;;3.00;;
323;SDS011;149;51.094;17.002;2023-07-30T09:04:44;3.10;;;2.80;;
323;SDS011;149;51.094;17.002;2023-07-30T09:07:14;5.13;;;2.70;;
323;SDS011;149;51.094;17.002;2023-07-30T09:09:42;3.50;;;3.20;;
323;SDS011;149;51.094;17.002;2023-07-30T09:12:13;5.93;;;2.53;;
323;SDS011;149;51.094;17.002;2023-07-30T09:14:41;5.00;;;3.30;;
323;SDS011;149;51.094;17.002;2023-07-30T09:17:18;3.53;;;3.23;;
323;SDS011;149;51.094;17.002;2023-07-30T09:19:45;4.90;;;2.90;;
323;SDS011;149;51.094;17.002;2023-07-30T09:22:35;3.73;;;2.77;;
323;SDS011;149;51.094;17.002;2023-07-30T09:25:05;2.90;;;2.70;;
323;SDS011;149;51.094;17.002;2023-07-30T09:27:33;3.43;;;3.13;;
323;SDS011;149;51.094;17.002;2023-07-30T09:30:01;3.93;;;2.70;;
323;SDS011;149;51.094;17.002;2023-07-30T09:32:33;4.10;;;2.77;;
323;SDS011;149;51.094;17.002;2023-07-30T09:35:07;3.00;;;2.80;;
323;SDS011;149;51.094;17.002;2023-07-30T09:37:37;2.87;;;2.67;;
323;SDS011;149;51.094;17.002;2023-07-30T09:40:08;4.40;;;3.30;;
323;SDS011;149;51.094;17.002;2023-07-30T09:42:36;3.17;;;2.97;;
323;SDS011;149;51.094;17.002;2023-07-30T09:45:06;2.90;;;2.70;;
323;SDS011;149;51.094;17.002;2023-07-30T09:47:38;3.70;;;3.20;;
323;SDS011;149;51.094;17.002;2023-07-30T09:50:05;3.40;;;3.10;;
323;SDS011;149;51.094;17.002;2023-07-30T09:52:33;3.40;;;3.10;;
323;SDS011;149;51.094;17.002;2023-07-30T09:54:59;3.27;;;3.07;;
323;SDS011;149;51.094;17.002;2023-07-30T09:57:28;3.07;;;2.87;;
323;SDS011;149;51.094;17.002;2023-07-30T09:59:55;6.10;;;3.30;;
323;SDS011;149;51.094;17.002;2023-07-30T10:02:23;3.23;;;3.03;;
323;SDS011;149;51.094;17.002;2023-07-30T10:04:50;3.73;;;2.90;;
323;SDS011;149;51.094;17.002;2023-07-30T10:07:23;3.73;;;2.83;;
323;SDS011;149;51.094;17.002;2023-07-30T10:09:52;4.23;;;3.10;;
323;SDS011;149;51.094;17.002;2023-07-30T10:12:24;4.23;;;2.80;;
323;SDS011;149;51.094;17.002;2023-07-30T10:14:54;3.23;;;3.03;;
323;SDS011;149;51.094;17.002;2023-07-30T10:17:22;7.17;;;3.40;;
323;SDS011;149;51.094;17.002;2023-07-30T10:19:49;3.20;;;2.90;;
323;SDS011;149;51.094;17.002;2023-07-30T10:22:20;3.07;;;2.87;;
323;SDS011;149;51.094;17.002;2023-07-30T10:24:57;6.33;;;3.00;;
323;SDS011;149;51.094;17.002;2023-07-30T10:27:36;4.40;;;2.83;;
323;SDS011;149;51.094;17.002;2023-07-30T10:30:11;3.37;;;3.07;;
323;SDS011;149;51.094;17.002;2023-07-30T10:32:41;3.00;;;2.80;;
323;SDS011;149;51.094;17.002;2023-07-30T10:43:42;2.90;;;2.70;;
323;SDS011;149;51.094;17.002;2023-07-30T10:46:13;2.80;;;2.60;;
323;SDS011;149;51.094;17.002;2023-07-30T10:48:43;3.07;;;2.87;;
323;SDS011;149;51.094;17.002;2023-07-30T10:51:13;3.60;;;2.60;;
323;SDS011;149;51.094;17.002;2023-07-30T10:53:45;2.77;;;2.57;;
323;SDS011;149;51.094;17.002;2023-07-30T10:56:17;5.83;;;2.70;;
323;SDS011;149;51.094;17.002;2023-07-30T10:58:51;4.03;;;3.03;;
323;SDS011;149;51.094;17.002;2023-07-30T11:01:19;3.13;;;2.80;;
323;SDS011;149;51.094;17.002;2023-07-30T11:03:49;4.10;;;3.70;;
323;SDS011;149;51.094;17.002;2023-07-30T11:06:25;4.77;;;3.53;;
323;SDS011;149;51.094;17.002;2023-07-30T11:08:53;3.30;;;3.00;;
323;SDS011;149;51.094;17.002;2023-07-30T11:11:20;5.90;;;2.90;;
323;SDS011;149;51.094;17.002;2023-07-30T11:13:49;3.77;;;2.70;;
323;SDS011;149;51.094;17.002;2023-07-30T11:16:16;2.70;;;2.47;;
323;SDS011;149;51.094;17.002;2023-07-30T11:18:43;3.43;;;3.13;;
323;SDS011;149;51.094;17.002;2023-07-30T11:21:13;3.40;;;3.17;;
323;SDS011;149;51.094;17.002;2023-07-30T11:23:43;3.63;;;3.33;;
323;SDS011;149;51.094;17.002;2023-07-30T11:26:18;2.93;;;2.73;;
323;SDS011;149;51.094;17.002;2023-07-30T11:28:46;3.33;;;3.10;;
323;SDS011;149;51.094;17.002;2023-07-30T11:31:15;3.27;;;2.97;;
323;SDS011;149;51.094;17.002;2023-07-30T11:33:46;3.20;;;2.90;;
323;SDS011;149;51.094;17.002;2023-07-30T11:36:18;2.60;;;2.40;;
323;SDS011;149;51.094;17.002;2023-07-30T11:38:48;2.33;;;2.13;;
323;SDS011;149;51.094;17.002;2023-07-30T11:41:17;4.00;;;2.87;;
323;SDS011;149;51.094;17.002;2023-07-30T11:43:44;4.83;;;3.47;;
323;SDS011;149;51.094;17.002;2023-07-30T11:46:16;3.30;;;3.10;;
323;SDS011;149;51.094;17.002;2023-07-30T11:48:47;2.87;;;2.67;;
323;SDS011;149;51.094;17.002;2023-07-30T11:51:25;3.90;;;3.50;;
323;SDS011;149;51.094;17.002;2023-07-30T11:56:22;2.53;;;2.33;;
323;SDS011;149;51.094;17.002;2023-07-30T11:58:54;3.50;;;3.30;;
323;SDS011;149;51.094;17.002;2023-07-30T12:01:27;2.87;;;2.63;;
323;SDS011;149;51.094;17.002;2023-07-30T12:03:58;3.20;;;3.00;;
323;SDS011;149;51.094;17.002;2023-07-30T12:06:45;2.87;;;2.67;;
323;SDS011;149;51.094;17.002;2023-07-30T12:09:21;3.20;;;3.00;;
323;SDS011;149;51.094;17.002;2023-07-30T12:11:53;3.57;;;3.27;;
323;SDS011;149;51.094;17.002;2023-07-30T12:14:42;3.17;;;2.97;;
323;SDS011;149;51.094;17.002;2023-07-30T12:17:11;3.87;;;3.57;;
323;SDS011;149;51.094;17.002;2023-07-30T12:19:38;5.17;;;3.00;;
323;SDS011;149;51.094;17.002;2023-07-30T12:22:05;3.47;;;3.17;;
323;SDS011;149;51.094;17.002;2023-07-30T12:24:32;3.70;;;3.30;;
323;SDS011;149;51.094;17.002;2023-07-30T12:26:59;5.03;;;3.27;;
323;SDS011;149;51.094;17.002;2023-07-30T12:29:27;3.53;;;3.23;;
323;SDS011;149;51.094;17.002;2023-07-30T12:31:54;3.97;;;3.67;;
323;SDS011;149;51.094;17.002;2023-07-30T12:34:23;3.10;;;2.90;;
323;SDS011;149;51.094;17.002;2023-07-30T12:36:50;3.17;;;2.97;;
323;SDS011;149;51.094;17.002;2023-07-30T12:39:17;3.23;;;2.60;;
323;SDS011;149;51.094;17.002;2023-07-30T12:41:44;3.10;;;2.47;;
323;SDS011;149;51.094;17.002;2023-07-30T12:44:11;3.00;;;2.70;;
323;SDS011;149;51.094;17.002;2023-07-30T12:46:40;4.83;;;3.47;;
323;SDS011;149;51.094;17.002;2023-07-30T12:49:10;3.70;;;3.10;;
323;SDS011;149;51.094;17.002;2023-07-30T12:51:37;3.30;;;2.53;;
323;SDS011;149;51.094;17.002;2023-07-30T12:54:04;4.53;;;2.50;;
323;SDS011;149;51.094;17.002;2023-07-30T12:56:31;3.73;;;2.80;;
323;SDS011;149;51.094;17.002;2023-07-30T12:59:02;4.93;;;2.50;;
323;SDS011;149;51.094;17.002;2023-07-30T13:01:29;5.23;;;2.70;;
323;SDS011;149;51.094;17.002;2023-07-30T13:03:58;2.47;;;2.27;;
323;SDS011;149;51.094;17.002;2023-07-30T13:06:24;3.13;;;2.53;;
323;SDS011;149;51.094;17.002;2023-07-30T13:08:52;2.67;;;2.47;;
323;SDS011;149;51.094;17.002;2023-07-30T13:11:20;2.80;;;2.60;;
323;SDS011;149;51.094;17.002;2023-07-30T13:13:47;4.33;;;2.90;;
323;SDS011;149;51.094;17.002;2023-07-30T13:16:14;2.80;;;2.60;;
323;SDS011;149;51.094;17.002;2023-07-30T13:18:41;2.90;;;2.70;;
323;SDS011;149;51.094;17.002;2023-07-30T13:21:08;2.83;;;2.60;;
323;SDS011;149;51.094;17.002;2023-07-30T13:23:35;2.80;;;2.60;;
323;SDS011;149;51.094;17.002;2023-07-30T13:26:02;3.03;;;2.70;;
323;SDS011;149;51.094;17.002;2023-07-30T13:28:29;2.73;;;2.40;;
323;SDS011;149;51.094;17.002;2023-07-30T13:30:56;3.27;;;3.07;;
323;SDS011;149;51.094;17.002;2023-07-30T13:33:24;2.80;;;2.60;;
323;SDS011;149;51.094;17.002;2023-07-30T13:35:50;2.60;;;2.40;;
323;SDS011;149;51.094;17.002;2023-07-30T13:38:18;3.80;;;3.50;;
323;SDS011;149;51.094;17.002;2023-07-30T13:40:47;4.20;;;3.10;;
323;SDS011;149;51.094;17.002;2023-07-30T13:43:15;4.20;;;3.20;;
323;SDS011;149;51.094;17.002;2023-07-30T13:45:42;3.67;;;3.30;;
323;SDS011;149;51.094;17.002;2023-07-30T13:48:09;3.20;;;3.00;;
323;SDS011;149;51.094;17.002;2023-07-30T13:50:36;4.13;;;3.23;;
323;SDS011;149;51.094;17.002;2023-07-30T13:53:03;3.70;;;3.40;;
323;SDS011;149;51.094;17.002;2023-07-30T13:55:31;4.20;;;3.80;;
323;SDS011;149;51.094;17.002;2023-07-30T13:57:57;4.33;;;3.30;;
323;SDS011;149;51.094;17.002;2023-07-30T14:00:25;4.20;;;3.57;;
323;SDS011;149;51.094;17.002;2023-07-30T14:02:52;3.23;;;2.93;;
323;SDS011;149;51.094;17.002;2023-07-30T14:05:19;3.03;;;2.80;;
323;SDS011;149;51.094;17.002;2023-07-30T14:07:46;3.67;;;3.30;;
323;SDS011;149;51.094;17.002;2023-07-30T14:10:13;3.43;;;3.23;;
323;SDS011;149;51.094;17.002;2023-07-30T14:12:41;5.90;;;3.60;;
323;SDS011;149;51.094;17.002;2023-07-30T14:15:08;3.10;;;2.80;;
323;SDS011;149;51.094;17.002;2023-07-30T14:17:36;2.70;;;2.60;;
323;SDS011;149;51.094;17.002;2023-07-30T14:20:03;3.10;;;2.90;;
323;SDS011;149;51.094;17.002;2023-07-30T14:22:31;2.63;;;2.43;;
323;SDS011;149;51.094;17.002;2023-07-30T14:24:59;5.40;;;3.10;;
323;SDS011;149;51.094;17.002;2023-07-30T14:27:26;3.10;;;2.90;;
323;SDS011;149;51.094;17.002;2023-07-30T14:29:53;3.30;;;3.10;;
323;SDS011;149;51.094;17.002;2023-07-30T14:32:20;2.70;;;2.50;;
323;SDS011;149;51.094;17.002;2023-07-30T14:34:47;3.10;;;2.90;;
323;SDS011;149;51.094;17.002;2023-07-30T14:37:14;2.87;;;2.67;;
323;SDS011;149;51.094;17.002;2023-07-30T14:39:42;3.17;;;2.97;;
323;SDS011;149;51.094;17.002;2023-07-30T14:42:09;3.37;;;3.07;;
323;SDS011;149;51.094;17.002;2023-07-30T14:44:35;2.87;;;2.67;;
323;SDS011;149;51.094;17.002;2023-07-30T14:47:03;3.03;;;2.83;;
323;SDS011;149;51.094;17.002;2023-07-30T14:49:31;2.80;;;2.60;;
323;SDS011;149;51.094;17.002;2023-07-30T14:51:58;3.27;;;3.07;;
323;SDS011;149;51.094;17.002;2023-07-30T14:54:25;3.30;;;3.00;;
323;SDS011;149;51.094;17.002;2023-07-30T14:56:52;3.87;;;2.87;;
323;SDS011;149;51.094;17.002;2023-07-30T14:59:20;4.97;;;2.83;;
323;SDS011;149;51.094;17.002;2023-07-30T15:01:47;2.77;;;2.57;;
323;SDS011;149;51.094;17.002;2023-07-30T15:04:14;2.50;;;2.30;;
323;SDS011;149;51.094;17.002;2023-07-30T15:06:41;2.17;;;2.00;;
323;SDS011;149;51.094;17.002;2023-07-30T15:09:08;13.13;;;2.63;;
323;SDS011;149;51.094;17.002;2023-07-30T15:11:35;3.10;;;2.40;;
323;SDS011;149;51.094;17.002;2023-07-30T15:14:03;3.17;;;2.50;;
323;SDS011;149;51.094;17.002;2023-07-30T15:16:30;2.70;;;2.50;;
323;SDS011;149;51.094;17.002;2023-07-30T15:18:57;15.03;;;5.30;;
323;SDS011;149;51.094;17.002;2023-07-30T15:21:24;8.07;;;4.87;;
323;SDS011;149;51.094;17.002;2023-07-30T15:23:52;12.83;;;5.50;;
323;SDS011;149;51.094;17.002;2023-07-30T15:26:19;10.27;;;5.40;;
323;SDS011;149;51.094;17.002;2023-07-30T15:28:47;6.60;;;4.80;;
323;SDS011;149;51.094;17.002;2023-07-30T15:31:14;11.93;;;6.13;;
323;SDS011;149;51.094;17.002;2023-07-30T15:33:41;9.97;;;5.73;;
323;SDS011;149;51.094;17.002;2023-07-30T15:36:12;4.73;;;4.33;;
323;SDS011;149;51.094;17.002;2023-07-30T15:38:39;4.67;;;3.93;;
323;SDS011;149;51.094;17.002;2023-07-30T15:41:07;3.67;;;3.40;;
323;SDS011;149;51.094;17.002;2023-07-30T15:43:34;4.83;;;4.03;;
323;SDS011;149;51.094;17.002;2023-07-30T15:46:05;4.40;;;3.97;;